Terminal Aerodrome Forecast
Issued by NWS

Home | Current Version | Previous Version | Text Only | Print | Product List | Glossary On
Versions: 1 2 3 4 5 6 7 8 9 10 11 12 13 14 15
527
FTUS44 KEPZ 292320
TAFLRU
TAF
KLRU 292320Z 3000/3024 31015G25KT P6SM VCSH SCT050 BKN100
     FM300300 31008KT P6SM SCT100
     FM300800 VRB04KT P6SM SKC
     FM301600 29011KT P6SM SKC
     FM301900 28018G28KT P6SM SKC=

USA.gov is the U.S. government's official web portal to all federal, state and local government web resources and services.